Time;durP1;ratioP1;P1;durP2;ratioP2;P2;SDS_P1;SDS_P2;PMS_P1;PMS_P2;Temp;Humidity;BMP_temperature;BMP_pressure;BME280_temperature;BME280_humidity;BME280_pressure;Samples;Min_cycle;Max_cycle;Signal;HPM_P1;HPM_P2
2023/03/01 00:02:06;;;;;;;22.10;9.77;;;;;;;;;;6068228;23;20066;-88
2023/03/01 00:04:35;;;;;;;21.52;10.18;;;;;;;;;;6068006;23;20062;-88
2023/03/01 00:07:01;;;;;;;29.27;9.60;;;;;;;;;;6068732;23;20024;-88
2023/03/01 00:09:29;;;;;;;19.63;9.75;;;;;;;;;;6068088;23;20017;-87
2023/03/01 00:11:55;;;;;;;20.17;8.38;;;;;;;;;;6070338;23;20077;-88
2023/03/01 00:14:23;;;;;;;30.73;10.52;;;;;;;;;;6068926;23;20452;-88
2023/03/01 00:16:50;;;;;;;22.30;9.65;;;;;;;;;;6088434;23;20018;-88
2023/03/01 00:19:18;;;;;;;21.35;10.32;;;;;;;;;;6109113;23;20019;-88
2023/03/01 00:22:06;;;;;;;23.77;9.30;;;;;;;;;;6153736;23;20005;-88
2023/03/01 00:24:32;;;;;;;23.40;9.98;;;;;;;;;;6153334;23;20021;-89
2023/03/01 00:27:01;;;;;;;23.65;10.93;;;;;;;;;;6177468;23;20172;-88
2023/03/01 00:29:29;;;;;;;21.83;10.32;;;;;;;;;;6131601;23;20621;-88
2023/03/01 00:31:55;;;;;;;19.70;9.30;;;;;;;;;;6152718;23;20024;-88
2023/03/01 00:34:32;;;;;;;23.98;10.00;;;;;;;;;;6178380;23;19998;-87
2023/03/01 00:37:04;;;;;;;24.92;10.15;;;;;;;;;;6154668;23;20438;-88
2023/03/01 00:39:33;;;;;;;27.15;10.20;;;;;;;;;;6129524;23;20398;-87
2023/03/01 00:41:59;;;;;;;23.20;10.43;;;;;;;;;;6152601;23;20363;-88
2023/03/01 00:44:28;;;;;;;24.73;10.68;;;;;;;;;;6154249;23;20020;-88
2023/03/01 00:46:57;;;;;;;23.77;9.32;;;;;;;;;;6127715;23;20100;-88
2023/03/01 00:49:27;;;;;;;27.30;10.90;;;;;;;;;;6179213;23;20005;-88
2023/03/01 00:51:59;;;;;;;27.88;11.98;;;;;;;;;;6154137;23;20009;-88
2023/03/01 00:54:25;;;;;;;25.40;11.38;;;;;;;;;;6132595;23;20021;-89
2023/03/01 00:56:51;;;;;;;30.92;11.77;;;;;;;;;;6155130;23;20019;-88
2023/03/01 00:59:17;;;;;;;25.20;10.73;;;;;;;;;;6131327;23;20010;-89
2023/03/01 01:01:53;;;;;;;23.95;10.55;;;;;;;;;;6154633;23;20013;-89
2023/03/01 01:04:19;;;;;;;23.77;10.38;;;;;;;;;;6153304;23;20080;-88
2023/03/01 01:07:07;;;;;;;28.15;10.50;;;;;;;;;;6153586;23;20006;-88
2023/03/01 01:09:34;;;;;;;23.85;9.95;;;;;;;;;;6154337;23;20080;-88
2023/03/01 01:12:00;;;;;;;28.58;11.95;;;;;;;;;;6130289;23;20020;-88
2023/03/01 01:14:26;;;;;;;53.85;12.73;;;;;;;;;;6153770;23;20006;-89
2023/03/01 01:16:59;;;;;;;123.55;15.52;;;;;;;;;;6128894;23;20013;-88
2023/03/01 01:19:33;;;;;;;81.18;13.98;;;;;;;;;;6129102;23;20087;-88
2023/03/01 01:22:01;;;;;;;92.53;14.73;;;;;;;;;;6151199;23;20033;-88
2023/03/01 01:24:27;;;;;;;48.67;12.48;;;;;;;;;;6127911;23;20357;-88
2023/03/01 01:27:21;;;;;;;116.13;14.75;;;;;;;;;;6150121;23;20021;-88
2023/03/01 01:29:47;;;;;;;88.25;15.07;;;;;;;;;;6160399;22;20024;-88
2023/03/01 01:32:27;;;;;;;52.72;13.38;;;;;;;;;;6133623;23;20083;-88
2023/03/01 01:34:54;;;;;;;62.08;12.32;;;;;;;;;;6184497;23;20525;-88
2023/03/01 01:37:20;;;;;;;102.60;13.75;;;;;;;;;;6183445;23;20599;-88
2023/03/01 01:39:46;;;;;;;101.45;14.07;;;;;;;;;;6133905;23;20020;-88
2023/03/01 01:42:17;;;;;;;150.63;16.27;;;;;;;;;;6184471;23;20013;-88
2023/03/01 01:44:43;;;;;;;95.63;16.85;;;;;;;;;;6159754;23;20029;-88
2023/03/01 01:47:18;;;;;;;102.22;16.73;;;;;;;;;;6183010;23;20013;-87
2023/03/01 01:49:57;;;;;;;60.57;15.70;;;;;;;;;;6182763;23;20057;-88
2023/03/01 01:52:41;;;;;;;46.55;13.70;;;;;;;;;;6134959;23;20268;-88
2023/03/01 01:55:37;;;;;;;44.92;14.70;;;;;;;;;;6135590;23;20005;-88
2023/03/01 01:58:05;;;;;;;31.98;12.98;;;;;;;;;;6147750;23;20012;-88
2023/03/01 02:00:34;;;;;;;35.60;11.88;;;;;;;;;;6185182;23;20084;-87
2023/03/01 02:03:02;;;;;;;38.53;13.73;;;;;;;;;;6137863;23;20017;-88
2023/03/01 02:05:48;;;;;;;41.33;14.35;;;;;;;;;;6187101;23;20037;-88
2023/03/01 02:08:16;;;;;;;36.75;14.43;;;;;;;;;;6184606;23;20450;-87
2023/03/01 02:11:33;;;;;;;;;;;;;;;;;;;;;
2023/03/01 02:14:00;;;;;;;92.95;14.73;;;;;;;;;;6066001;23;20038;-88
2023/03/01 02:16:27;;;;;;;43.25;14.43;;;;;;;;;;6147030;23;20009;-87
2023/03/01 02:18:59;;;;;;;35.47;12.90;;;;;;;;;;6185382;23;20510;-88
2023/03/01 02:21:44;;;;;;;29.02;12.10;;;;;;;;;;6131763;23;20024;-88
2023/03/01 02:24:28;;;;;;;33.92;11.30;;;;;;;;;;6184209;23;20017;-88
2023/03/01 02:26:56;;;;;;;58.85;13.60;;;;;;;;;;6184056;23;20336;-88
2023/03/01 02:29:29;;;;;;;48.10;14.43;;;;;;;;;;6184087;22;20033;-88
2023/03/01 02:31:57;;;;;;;78.43;13.32;;;;;;;;;;6159798;23;20039;-90
2023/03/01 02:34:25;;;;;;;77.95;13.90;;;;;;;;;;6183416;23;20043;-89
2023/03/01 02:37:00;;;;;;;109.93;14.95;;;;;;;;;;6182457;23;20439;-89
2023/03/01 02:39:51;;;;;;;60.20;14.45;;;;;;;;;;6183021;23;20020;-89
2023/03/01 02:42:36;;;;;;;43.83;11.75;;;;;;;;;;6173423;23;20478;-89
2023/03/01 02:45:05;;;;;;;30.13;12.00;;;;;;;;;;6183461;23;20019;-89
2023/03/01 02:47:33;;;;;;;49.53;12.63;;;;;;;;;;6185063;23;20313;-89
2023/03/01 02:50:00;;;;;;;27.95;12.05;;;;;;;;;;6134043;23;20013;-89
2023/03/01 02:52:45;;;;;;;33.78;12.80;;;;;;;;;;6135949;23;20455;-89
2023/03/01 02:55:15;;;;;;;29.38;12.63;;;;;;;;;;6184696;23;20446;-89
2023/03/01 02:57:56;;;;;;;36.40;11.98;;;;;;;;;;6158223;23;20439;-89
2023/03/01 03:00:25;;;;;;;28.90;11.82;;;;;;;;;;6136493;23;20614;-89
2023/03/01 03:03:01;;;;;;;24.90;10.95;;;;;;;;;;6182543;23;20064;-88
2023/03/01 03:05:30;;;;;;;28.88;11.50;;;;;;;;;;6134303;23;20021;-89
2023/03/01 03:07:57;;;;;;;28.63;12.23;;;;;;;;;;6184237;23;20005;-89
2023/03/01 03:10:27;;;;;;;27.08;12.75;;;;;;;;;;6183840;23;20009;-88
2023/03/01 03:13:11;;;;;;;26.25;12.45;;;;;;;;;;6182581;23;20036;-88
2023/03/01 03:15:50;;;;;;;26.60;11.32;;;;;;;;;;6182301;23;20012;-89
2023/03/01 03:18:18;;;;;;;29.17;12.38;;;;;;;;;;6183332;23;20016;-89
2023/03/01 03:21:05;;;;;;;25.70;12.88;;;;;;;;;;6183505;23;20001;-89
2023/03/01 03:23:35;;;;;;;30.48;12.40;;;;;;;;;;6181220;23;20025;-90
2023/03/01 03:26:03;;;;;;;27.77;11.75;;;;;;;;;;6181815;23;20005;-89
2023/03/01 03:28:39;;;;;;;29.33;11.52;;;;;;;;;;6182101;23;20032;-89
2023/03/01 03:31:05;;;;;;;;;;;;;;;;;;6132545;23;20017;-89
2023/03/01 03:33:39;;;;;;;86.00;14.05;;;;;;;;;;6180501;23;20018;-89
2023/03/01 03:36:05;;;;;;;78.18;13.80;;;;;;;;;;6180731;23;20525;-89
2023/03/01 03:38:31;;;;;;;288.48;20.27;;;;;;;;;;6134200;23;20013;-96
2023/03/01 03:41:02;;;;;;;276.80;20.77;;;;;;;;;;6135067;23;20439;-95
2023/03/01 03:43:29;;;;;;;99.97;14.30;;;;;;;;;;6184135;23;20622;-96
2023/03/01 03:45:56;;;;;;;81.57;13.23;;;;;;;;;;6183137;23;20354;-96
2023/03/01 03:48:23;;;;;;;104.40;14.38;;;;;;;;;;6183958;23;20016;-95
2023/03/01 03:50:50;;;;;;;43.40;10.98;;;;;;;;;;6133902;23;20018;-95
2023/03/01 03:53:16;;;;;;;54.80;11.43;;;;;;;;;;6185106;23;20371;-95
2023/03/01 03:55:44;;;;;;;95.10;13.15;;;;;;;;;;6182744;23;20040;-96
2023/03/01 03:58:10;;;;;;;205.18;14.80;;;;;;;;;;6134428;23;20012;-96
2023/03/01 04:00:44;;;;;;;153.25;13.93;;;;;;;;;;6181777;23;20525;-96
2023/03/01 04:03:12;;;;;;;75.20;11.80;;;;;;;;;;6182174;23;20036;-96
2023/03/01 04:05:54;;;;;;;;;;;;;;;;;;;;;
2023/03/01 04:08:21;;;;;;;103.70;13.10;;;;;;;;;;6183424;23;20081;-96
2023/03/01 04:10:53;;;;;;;67.18;11.93;;;;;;;;;;6181973;23;20063;-95
2023/03/01 04:13:25;;;;;;;106.07;12.15;;;;;;;;;;6181965;23;20047;-95
2023/03/01 04:15:55;;;;;;;86.25;11.30;;;;;;;;;;6182576;23;20009;-96
2023/03/01 04:19:09;;;;;;;;;;;;;;;;;;;;;
2023/03/01 04:21:45;;;;;;;37.53;10.65;;;;;;;;;;6064347;23;20062;-95
2023/03/01 04:24:12;;;;;;;42.50;11.07;;;;;;;;;;6078162;23;20057;-95
2023/03/01 04:26:57;;;;;;;33.70;12.00;;;;;;;;;;6166096;23;20017;-96
2023/03/01 04:30:01;;;;;;;36.05;13.40;;;;;;;;;;6185733;23;20064;-95
2023/03/01 04:32:50;;;;;;;30.80;13.60;;;;;;;;;;6158513;22;20013;-96
2023/03/01 04:36:05;;;;;;;;;;;;;;;;;;;;;
2023/03/01 04:42:38;;;;;;;36.55;13.02;;;;;;;;;;6097413;23;20017;-96
2023/03/01 04:45:12;;;;;;;36.60;12.70;;;;;;;;;;6119378;22;20025;-94
2023/03/01 04:47:39;;;;;;;28.08;11.45;;;;;;;;;;6193155;23;20001;-94
2023/03/01 04:50:10;;;;;;;30.00;11.30;;;;;;;;;;6193719;23;20012;-94
2023/03/01 04:52:37;;;;;;;28.88;10.65;;;;;;;;;;6191995;23;20005;-94
2023/03/01 04:55:03;;;;;;;25.52;10.80;;;;;;;;;;6167600;23;20020;-95
2023/03/01 04:57:30;;;;;;;20.48;8.63;;;;;;;;;;6191966;23;20005;-93
2023/03/01 04:59:56;;;;;;;25.35;10.85;;;;;;;;;;6192443;23;20427;-95
2023/03/01 05:02:22;;;;;;;27.95;10.27;;;;;;;;;;6191838;23;20013;-92
2023/03/01 05:04:48;;;;;;;23.92;10.73;;;;;;;;;;6193051;23;20013;-92
2023/03/01 05:07:19;;;;;;;37.03;11.13;;;;;;;;;;6193546;23;20539;-94
2023/03/01 05:09:46;;;;;;;25.58;9.57;;;;;;;;;;6169209;23;20015;-93
2023/03/01 05:12:12;;;;;;;32.47;10.25;;;;;;;;;;6169446;23;20013;-94
2023/03/01 05:14:41;;;;;;;23.58;9.82;;;;;;;;;;6193151;23;20011;-92
2023/03/01 05:17:08;;;;;;;24.00;9.65;;;;;;;;;;6192300;23;20482;-94
2023/03/01 05:19:34;;;;;;;39.25;9.65;;;;;;;;;;6168619;23;20439;-94
2023/03/01 05:22:03;;;;;;;24.20;8.93;;;;;;;;;;6168814;23;20004;-93
2023/03/01 05:24:34;;;;;;;26.45;9.95;;;;;;;;;;6196684;23;20008;-95
2023/03/01 05:27:00;;;;;;;19.85;9.15;;;;;;;;;;6198188;23;20111;-93
2023/03/01 05:29:28;;;;;;;22.65;10.18;;;;;;;;;;6226260;23;20437;-93
2023/03/01 05:31:56;;;;;;;24.95;9.90;;;;;;;;;;6200153;23;19997;-95
2023/03/01 05:34:25;;;;;;;22.83;8.77;;;;;;;;;;6205153;23;20004;-92
2023/03/01 05:36:52;;;;;;;17.02;8.75;;;;;;;;;;6206079;23;20067;-93
2023/03/01 05:39:22;;;;;;;24.02;9.60;;;;;;;;;;6204072;23;20421;-92
2023/03/01 05:41:49;;;;;;;26.35;10.60;;;;;;;;;;6205036;23;20008;-92
2023/03/01 05:44:15;;;;;;;16.95;8.13;;;;;;;;;;6209358;23;20012;-93
2023/03/01 05:46:50;;;;;;;22.83;9.65;;;;;;;;;;6206170;22;20181;-92
2023/03/01 05:49:16;;;;;;;21.73;9.10;;;;;;;;;;6168080;23;20051;-94
2023/03/01 05:51:43;;;;;;;21.95;9.07;;;;;;;;;;6190055;23;20001;-92
2023/03/01 05:54:09;;;;;;;20.40;9.68;;;;;;;;;;6188645;23;20469;-92
2023/03/01 05:56:36;;;;;;;23.67;9.55;;;;;;;;;;6164398;23;20017;-94
2023/03/01 05:59:03;;;;;;;21.42;9.43;;;;;;;;;;6187099;23;20316;-94
2023/03/01 06:01:29;;;;;;;21.85;9.25;;;;;;;;;;6187420;23;20009;-93
2023/03/01 06:03:56;;;;;;;26.80;9.40;;;;;;;;;;6187846;23;20024;-93
2023/03/01 06:06:46;;;;;;;21.80;10.13;;;;;;;;;;6188139;23;20069;-93
2023/03/01 06:09:12;;;;;;;20.27;9.85;;;;;;;;;;6188543;23;20028;-94
2023/03/01 06:11:38;;;;;;;29.20;8.93;;;;;;;;;;6163600;23;20017;-94
2023/03/01 06:14:06;;;;;;;18.30;9.05;;;;;;;;;;6163873;23;20036;-94
2023/03/01 06:16:32;;;;;;;20.48;9.25;;;;;;;;;;6186676;23;20777;-94
2023/03/01 06:19:05;;;;;;;22.30;10.13;;;;;;;;;;6163769;23;20012;-94
2023/03/01 06:21:36;;;;;;;18.10;8.70;;;;;;;;;;6188403;23;20005;-93
2023/03/01 06:24:02;;;;;;;24.58;9.10;;;;;;;;;;6195175;23;20033;-95
2023/03/01 06:26:29;;;;;;;19.45;8.85;;;;;;;;;;6196564;23;20015;-93
2023/03/01 06:28:56;;;;;;;27.20;9.80;;;;;;;;;;6170749;23;20006;-94
2023/03/01 06:31:24;;;;;;;22.35;9.15;;;;;;;;;;6194484;23;20031;-94
2023/03/01 06:33:51;;;;;;;22.52;9.35;;;;;;;;;;6189512;23;20032;-93
2023/03/01 06:36:21;;;;;;;25.02;10.85;;;;;;;;;;6164125;23;20057;-93
2023/03/01 06:41:24;;;;;;;18.70;9.63;;;;;;;;;;6161045;23;20022;-94
2023/03/01 06:43:50;;;;;;;20.05;9.30;;;;;;;;;;6125201;23;20087;-94
2023/03/01 06:46:17;;;;;;;19.73;9.43;;;;;;;;;;6159658;23;20014;-94
2023/03/01 06:48:43;;;;;;;30.02;10.82;;;;;;;;;;6141156;23;20016;-93
2023/03/01 06:51:09;;;;;;;28.52;10.23;;;;;;;;;;6138659;23;20085;-94
2023/03/01 06:53:36;;;;;;;25.00;11.43;;;;;;;;;;6140308;23;20586;-94
2023/03/01 06:56:02;;;;;;;23.98;10.73;;;;;;;;;;6140286;23;20029;-94
2023/03/01 06:58:28;;;;;;;27.48;11.95;;;;;;;;;;6189209;23;20013;-94
2023/03/01 07:00:54;;;;;;;25.92;9.88;;;;;;;;;;6188398;23;20020;-93
2023/03/01 07:03:20;;;;;;;23.40;11.13;;;;;;;;;;6165071;23;20013;-94
2023/03/01 07:05:52;;;;;;;27.58;11.00;;;;;;;;;;6139067;23;20442;-94
2023/03/01 07:08:19;;;;;;;24.42;10.48;;;;;;;;;;6188408;23;20423;-94
2023/03/01 07:10:47;;;;;;;28.85;10.85;;;;;;;;;;6190805;23;20006;-94
2023/03/01 07:13:14;;;;;;;21.65;10.23;;;;;;;;;;6139050;23;20066;-93
2023/03/01 07:15:41;;;;;;;21.88;9.88;;;;;;;;;;6193042;23;20222;-95
2023/03/01 07:18:07;;;;;;;28.42;11.45;;;;;;;;;;6165680;23;20450;-94
2023/03/01 07:20:33;;;;;;;25.35;11.23;;;;;;;;;;6170755;23;20024;-94
2023/03/01 07:22:59;;;;;;;27.00;11.07;;;;;;;;;;6147328;23;20024;-94
2023/03/01 07:25:25;;;;;;;24.55;10.23;;;;;;;;;;6148658;23;20036;-94
2023/03/01 07:27:57;;;;;;;25.02;11.55;;;;;;;;;;6144448;23;20068;-94
2023/03/01 07:30:25;;;;;;;26.67;11.20;;;;;;;;;;6146574;23;20059;-94
2023/03/01 07:32:54;;;;;;;28.27;11.60;;;;;;;;;;6197175;23;19997;-93
2023/03/01 07:35:26;;;;;;;22.02;10.65;;;;;;;;;;6193096;23;19993;-94
2023/03/01 07:37:53;;;;;;;21.33;9.98;;;;;;;;;;6145668;23;20040;-94
2023/03/01 07:43:20;;;;;;;20.50;10.65;;;;;;;;;;6203966;22;20337;-95
2023/03/01 07:45:47;;;;;;;27.65;13.75;;;;;;;;;;6170130;23;20044;-94
2023/03/01 07:48:16;;;;;;;25.83;10.18;;;;;;;;;;6161866;23;20024;-94
2023/03/01 07:50:42;;;;;;;21.02;11.15;;;;;;;;;;6186718;23;20006;-93
2023/03/01 07:53:09;;;;;;;26.40;11.35;;;;;;;;;;6161760;23;20006;-93
2023/03/01 07:55:35;;;;;;;23.38;10.60;;;;;;;;;;6185589;23;20009;-94
2023/03/01 07:58:01;;;;;;;22.67;10.25;;;;;;;;;;6161664;23;20097;-94
2023/03/01 08:00:29;;;;;;;24.10;11.18;;;;;;;;;;6191077;23;20005;-94
2023/03/01 08:02:59;;;;;;;28.45;12.32;;;;;;;;;;6195005;23;20005;-94
2023/03/01 08:05:25;;;;;;;22.80;11.77;;;;;;;;;;6193959;23;20513;-94
2023/03/01 08:07:51;;;;;;;21.70;10.27;;;;;;;;;;6193948;23;20001;-94
2023/03/01 08:10:17;;;;;;;21.35;10.48;;;;;;;;;;6193598;23;20008;-95
2023/03/01 08:12:44;;;;;;;22.73;10.75;;;;;;;;;;6192626;23;20493;-94
2023/03/01 08:15:10;;;;;;;25.83;12.05;;;;;;;;;;6167522;23;20028;-94
2023/03/01 08:17:36;;;;;;;24.25;11.57;;;;;;;;;;6191541;23;20005;-94
2023/03/01 08:20:05;;;;;;;22.45;11.18;;;;;;;;;;6166160;23;20016;-95
2023/03/01 08:22:32;;;;;;;26.65;10.57;;;;;;;;;;6167162;23;20005;-94
2023/03/01 08:24:58;;;;;;;25.42;10.98;;;;;;;;;;6163412;23;20060;-95
2023/03/01 08:27:24;;;;;;;27.95;11.45;;;;;;;;;;6163064;23;20152;-95
2023/03/01 08:29:50;;;;;;;22.75;11.02;;;;;;;;;;6188148;23;20032;-95
2023/03/01 08:32:19;;;;;;;24.23;11.45;;;;;;;;;;6187415;23;20001;-95
2023/03/01 08:34:47;;;;;;;21.13;10.55;;;;;;;;;;6162306;23;20015;-94
2023/03/01 08:37:13;;;;;;;18.35;10.30;;;;;;;;;;6186859;23;20004;-95
2023/03/01 08:39:50;;;;;;;21.88;11.15;;;;;;;;;;6163845;23;20016;-94
2023/03/01 08:42:16;;;;;;;21.45;11.10;;;;;;;;;;6188629;23;20009;-95
2023/03/01 08:44:42;;;;;;;22.05;10.90;;;;;;;;;;6164775;23;20689;-96
2023/03/01 08:47:08;;;;;;;21.50;10.60;;;;;;;;;;6163325;23;20028;-96
2023/03/01 08:49:35;;;;;;;19.85;10.85;;;;;;;;;;6189292;23;20009;-96
2023/03/01 08:52:02;;;;;;;21.08;10.68;;;;;;;;;;6190966;23;20029;-95
2023/03/01 08:54:29;;;;;;;29.25;13.10;;;;;;;;;;6167058;23;20023;-95
2023/03/01 08:56:58;;;;;;;33.78;15.90;;;;;;;;;;6169975;23;20013;-95
2023/03/01 08:59:26;;;;;;;29.25;14.85;;;;;;;;;;6195530;23;20009;-96
2023/03/01 09:01:55;;;;;;;45.13;15.85;;;;;;;;;;6195888;23;20004;-96
2023/03/01 09:04:44;;;;;;;37.03;17.45;;;;;;;;;;6175943;23;20008;-95
2023/03/01 09:07:08;;;;;;;36.58;17.77;;;;;;;;;;6197013;23;20009;-92
2023/03/01 09:09:37;;;;;;;28.35;15.13;;;;;;;;;;6201063;23;20046;-94
2023/03/01 09:12:04;;;;;;;30.15;14.82;;;;;;;;;;6197551;23;20009;-95
2023/03/01 09:14:31;;;;;;;33.75;17.05;;;;;;;;;;6199869;23;20009;-95
2023/03/01 09:17:02;;;;;;;33.63;17.92;;;;;;;;;;6175711;23;20073;-94
2023/03/01 09:19:35;;;;;;;32.47;17.02;;;;;;;;;;6202752;23;20001;-94
2023/03/01 09:22:01;;;;;;;34.30;17.40;;;;;;;;;;6206168;23;20005;-93
2023/03/01 09:24:27;;;;;;;29.65;16.33;;;;;;;;;;6181808;23;19994;-94
2023/03/01 09:26:54;;;;;;;31.88;15.38;;;;;;;;;;6180660;23;20124;-96
2023/03/01 09:29:24;;;;;;;30.55;16.10;;;;;;;;;;6204774;23;19993;-96
2023/03/01 09:31:50;;;;;;;30.48;16.48;;;;;;;;;;6198184;23;20005;-95
2023/03/01 09:34:19;;;;;;;42.42;17.88;;;;;;;;;;6171112;23;20005;-96
2023/03/01 09:36:54;;;;;;;34.78;18.10;;;;;;;;;;6191889;23;20037;-96
2023/03/01 09:39:21;;;;;;;28.02;15.88;;;;;;;;;;6169089;23;20017;-95
2023/03/01 09:42:04;;;;;;;31.55;16.48;;;;;;;;;;6166716;23;20037;-96
2023/03/01 09:44:45;;;;;;;34.53;16.13;;;;;;;;;;6194555;23;20043;-95
2023/03/01 09:47:26;;;;;;;28.88;16.02;;;;;;;;;;6190075;23;20009;-95
2023/03/01 09:50:07;;;;;;;29.65;17.25;;;;;;;;;;6192387;23;20080;-96
2023/03/01 09:52:56;;;;;;;37.43;18.33;;;;;;;;;;6191035;23;20209;-96
2023/03/01 09:55:42;;;;;;;26.77;15.85;;;;;;;;;;6190185;23;20012;-95
2023/03/01 09:58:18;;;;;;;30.33;16.92;;;;;;;;;;6188796;23;20076;-95
2023/03/01 10:00:48;;;;;;;30.00;16.25;;;;;;;;;;6188257;23;20009;-96
2023/03/01 10:03:23;;;;;;;27.40;15.38;;;;;;;;;;6188948;23;20040;-96
2023/03/01 10:06:08;;;;;;;24.45;13.13;;;;;;;;;;6189198;23;20039;-95
2023/03/01 10:08:38;;;;;;;32.35;16.95;;;;;;;;;;6190583;23;20029;-95
2023/03/01 10:11:13;;;;;;;23.98;12.75;;;;;;;;;;6188729;23;20015;-96
2023/03/01 10:14:16;;;;;;;18.90;9.50;;;;;;;;;;6189776;23;20011;-96
2023/03/01 10:16:48;;;;;;;22.50;13.20;;;;;;;;;;6190264;23;20024;-96
2023/03/01 10:19:22;;;;;;;22.70;13.77;;;;;;;;;;6192123;23;20072;-96
2023/03/01 10:21:51;;;;;;;21.40;13.82;;;;;;;;;;6192319;23;20009;-96
2023/03/01 10:24:21;;;;;;;20.70;12.40;;;;;;;;;;6189615;23;20005;-96
2023/03/01 10:27:00;;;;;;;25.27;14.82;;;;;;;;;;6186859;23;20009;-96
2023/03/01 10:29:50;;;;;;;29.25;15.63;;;;;;;;;;6186647;23;20005;-95
2023/03/01 10:32:24;;;;;;;21.85;13.95;;;;;;;;;;6161743;23;20009;-96
2023/03/01 10:38:30;;;;;;;25.58;15.90;;;;;;;;;;6199400;23;20651;-95
2023/03/01 10:41:15;;;;;;;23.48;13.45;;;;;;;;;;6192549;23;20009;-96
2023/03/01 10:43:46;;;;;;;23.65;13.40;;;;;;;;;;6151115;23;20028;-96
2023/03/01 10:46:30;;;;;;;22.80;13.57;;;;;;;;;;6185498;23;20427;-95
2023/03/01 10:49:29;;;;;;;23.30;14.13;;;;;;;;;;6201174;23;20028;-96
2023/03/01 10:52:06;;;;;;;23.92;14.88;;;;;;;;;;6197601;23;20001;-95
2023/03/01 10:54:36;;;;;;;20.90;13.32;;;;;;;;;;6200393;23;20001;-96
2023/03/01 10:57:04;;;;;;;22.40;14.23;;;;;;;;;;6175631;23;20036;-96
2023/03/01 10:59:39;;;;;;;24.30;13.93;;;;;;;;;;6200054;23;20028;-96
2023/03/01 11:02:18;;;;;;;24.88;14.93;;;;;;;;;;6196325;23;20013;-95
2023/03/01 11:05:03;;;;;;;21.92;14.45;;;;;;;;;;6196758;23;20036;-95
2023/03/01 11:07:34;;;;;;;25.90;14.43;;;;;;;;;;6201994;23;20012;-94
2023/03/01 11:10:15;;;;;;;;;;;;;;;;;;6202093;23;20001;-95
2023/03/01 11:12:46;;;;;;;34.28;15.23;;;;;;;;;;6200669;23;19900;-95
2023/03/01 11:15:24;;;;;;;19.00;12.80;;;;;;;;;;6175295;23;20005;-96
2023/03/01 11:21:09;;;;;;;21.65;12.68;;;;;;;;;;6197848;23;20005;-96
2023/03/01 11:23:53;;;;;;;18.00;12.07;;;;;;;;;;6174308;23;19996;-95
2023/03/01 11:26:25;;;;;;;16.13;11.05;;;;;;;;;;6186193;23;20205;-95
2023/03/01 11:28:54;;;;;;;24.85;11.90;;;;;;;;;;6170631;23;20458;-95
2023/03/01 11:31:34;;;;;;;;;;;;;;;;;;;;;
2023/03/01 11:34:06;;;;;;;21.05;12.10;;;;;;;;;;6194086;23;20033;-95
2023/03/01 11:36:55;;;;;;;19.15;12.20;;;;;;;;;;6167940;23;20009;-95
2023/03/01 11:39:45;;;;;;;21.40;13.63;;;;;;;;;;6195033;23;20005;-95
2023/03/01 11:42:37;;;;;;;21.45;12.10;;;;;;;;;;6193969;23;20012;-95
2023/03/01 11:45:08;;;;;;;18.77;11.85;;;;;;;;;;6194528;23;20024;-94
2023/03/01 11:47:47;;;;;;;14.00;10.35;;;;;;;;;;6194373;23;20013;-95
2023/03/01 11:50:42;;;;;;;17.85;11.20;;;;;;;;;;6193687;23;20031;-94
2023/03/01 11:53:41;;;;;;;17.30;11.68;;;;;;;;;;6194011;23;20096;-95
2023/03/01 11:56:22;;;;;;;15.57;11.50;;;;;;;;;;6194143;23;20061;-95
2023/03/01 11:59:10;;;;;;;21.05;11.75;;;;;;;;;;6194269;23;20447;-95
2023/03/01 12:04:38;;;;;;;15.48;10.88;;;;;;;;;;6191282;23;20011;-95
2023/03/01 12:07:29;;;;;;;18.40;10.23;;;;;;;;;;6192128;23;20009;-95
2023/03/01 12:10:30;;;;;;;15.10;9.32;;;;;;;;;;6193776;23;20009;-94
2023/03/01 12:13:10;;;;;;;22.95;12.13;;;;;;;;;;6195085;23;20009;-95
2023/03/01 12:16:15;;;;;;;22.10;12.40;;;;;;;;;;6194693;23;20008;-94
2023/03/01 12:18:56;;;;;;;15.95;10.85;;;;;;;;;;6162353;23;20451;-94
2023/03/01 12:21:46;;;;;;;17.13;11.48;;;;;;;;;;6195616;23;20011;-94
2023/03/01 12:24:27;;;;;;;15.48;10.88;;;;;;;;;;6196643;23;20073;-94
2023/03/01 12:27:12;;;;;;;15.38;10.52;;;;;;;;;;6195180;23;20075;-94
2023/03/01 12:29:41;;;;;;;13.55;9.82;;;;;;;;;;6194782;23;20024;-94
2023/03/01 12:32:17;;;;;;;13.45;9.15;;;;;;;;;;6195766;23;20549;-94
2023/03/01 12:38:18;;;;;;;19.10;10.55;;;;;;;;;;6182345;23;20076;-93
2023/03/01 12:41:03;;;;;;;17.17;11.48;;;;;;;;;;6197245;23;20065;-94
2023/03/01 12:43:44;;;;;;;20.88;10.82;;;;;;;;;;6196119;22;20025;-95
2023/03/01 12:46:24;;;;;;;15.80;10.50;;;;;;;;;;6174257;23;20010;-94
2023/03/01 12:49:09;;;;;;;19.80;10.88;;;;;;;;;;6149397;23;20006;-94
2023/03/01 12:51:36;;;;;;;17.08;10.45;;;;;;;;;;6149408;23;20001;-95
2023/03/01 12:54:18;;;;;;;17.63;9.82;;;;;;;;;;6173377;23;20025;-94
2023/03/01 12:56:52;;;;;;;14.75;9.02;;;;;;;;;;6149081;23;20013;-96
2023/03/01 12:59:36;;;;;;;11.35;7.85;;;;;;;;;;6172495;23;20456;-96
2023/03/01 13:02:19;;;;;;;14.68;8.52;;;;;;;;;;6172318;23;20049;-96
2023/03/01 13:05:04;;;;;;;11.15;8.05;;;;;;;;;;6160691;23;20036;-96
2023/03/01 13:07:38;;;;;;;14.90;8.63;;;;;;;;;;6156027;23;20234;-96
2023/03/01 13:10:15;;;;;;;14.25;9.13;;;;;;;;;;6155040;23;19998;-96
2023/03/01 13:12:53;;;;;;;13.80;8.65;;;;;;;;;;6155254;23;20017;-96
2023/03/01 13:15:22;;;;;;;17.05;9.95;;;;;;;;;;6154917;23;20001;-96
2023/03/01 13:18:01;;;;;;;14.88;9.25;;;;;;;;;;6153807;23;20014;-96
2023/03/01 13:20:33;;;;;;;15.25;9.60;;;;;;;;;;6145182;23;20025;-96
2023/03/01 13:23:28;;;;;;;15.18;9.43;;;;;;;;;;6152645;23;20032;-96
2023/03/01 13:26:24;;;;;;;15.25;9.70;;;;;;;;;;6143405;23;20072;-96
2023/03/01 13:28:52;;;;;;;14.13;9.57;;;;;;;;;;6141831;23;20017;-96
2023/03/01 13:31:38;;;;;;;15.02;10.45;;;;;;;;;;6144469;23;20009;-95
2023/03/01 13:34:28;;;;;;;16.85;10.00;;;;;;;;;;6145478;23;20028;-95
2023/03/01 13:37:09;;;;;;;14.80;9.85;;;;;;;;;;6138967;23;20009;-95
2023/03/01 13:39:40;;;;;;;14.38;8.57;;;;;;;;;;6147050;23;20099;-94
2023/03/01 13:42:26;;;;;;;16.13;8.80;;;;;;;;;;6114680;23;20017;-95
2023/03/01 13:45:04;;;;;;;18.27;8.45;;;;;;;;;;6180453;23;20019;-95
2023/03/01 13:47:40;;;;;;;12.88;9.02;;;;;;;;;;6169810;23;20123;-96
2023/03/01 13:50:06;;;;;;;;;;;;;;;;;;6192627;23;20001;-94
2023/03/01 13:52:47;;;;;;;13.68;8.13;;;;;;;;;;6189633;23;19972;-95
2023/03/01 13:55:23;;;;;;;14.13;9.63;;;;;;;;;;6188992;23;20059;-96
2023/03/01 13:57:54;;;;;;;13.82;8.80;;;;;;;;;;6188902;23;20019;-95
2023/03/01 14:00:38;;;;;;;12.98;8.23;;;;;;;;;;6190700;23;20032;-95
2023/03/01 14:03:18;;;;;;;12.70;9.07;;;;;;;;;;6190322;23;20012;-96
2023/03/01 14:06:07;;;;;;;14.73;8.88;;;;;;;;;;6189187;23;20005;-96
2023/03/01 14:08:41;;;;;;;16.48;10.43;;;;;;;;;;6188741;23;20005;-96
2023/03/01 14:12:04;;;;;;;15.23;8.93;;;;;;;;;;6165511;23;20033;-95
2023/03/01 14:14:09;;;;;;;14.45;9.68;;;;;;;;;;6181365;23;20510;-96
2023/03/01 14:16:54;;;;;;;17.67;10.43;;;;;;;;;;6190501;23;20435;-96
2023/03/01 14:19:25;;;;;;;14.73;9.85;;;;;;;;;;6190495;23;20009;-95
2023/03/01 14:22:03;;;;;;;15.43;9.77;;;;;;;;;;6190974;23;20012;-94
2023/03/01 14:24:32;;;;;;;15.18;9.77;;;;;;;;;;6188584;23;20528;-94
2023/03/01 14:27:05;;;;;;;16.90;10.50;;;;;;;;;;6189003;23;20016;-94
2023/03/01 14:29:36;;;;;;;15.20;10.50;;;;;;;;;;6166121;23;20110;-94
2023/03/01 14:32:22;;;;;;;15.90;10.38;;;;;;;;;;6190239;23;20501;-94
2023/03/01 14:34:50;;;;;;;14.85;10.05;;;;;;;;;;6189869;23;20445;-95
2023/03/01 14:37:19;;;;;;;13.57;9.45;;;;;;;;;;6189335;23;20009;-93
2023/03/01 14:40:04;;;;;;;;;;;;;;;;;;;;;
2023/03/01 14:42:37;;;;;;;18.10;10.75;;;;;;;;;;6190910;23;20067;-94
2023/03/01 14:45:11;;;;;;;18.92;10.02;;;;;;;;;;5840645;23;8209046;-93
2023/03/01 14:47:47;;;;;;;17.65;9.77;;;;;;;;;;6166570;23;20083;-93
2023/03/01 14:50:21;;;;;;;15.45;10.27;;;;;;;;;;6167349;23;20013;-94
2023/03/01 14:52:49;;;;;;;15.25;10.45;;;;;;;;;;6190940;23;20032;-93
2023/03/01 14:58:10;;;;;;;16.95;11.27;;;;;;;;;;6161958;23;20302;-94
2023/03/01 15:00:36;;;;;;;14.32;10.18;;;;;;;;;;6191937;23;20016;-95
2023/03/01 15:03:16;;;;;;;15.63;10.23;;;;;;;;;;6166218;23;20005;-94
2023/03/01 15:05:45;;;;;;;15.35;11.18;;;;;;;;;;6190952;23;20035;-94
2023/03/01 15:08:18;;;;;;;14.35;9.00;;;;;;;;;;6189959;23;20279;-94
2023/03/01 15:10:56;;;;;;;17.23;10.57;;;;;;;;;;6190284;23;20064;-93
2023/03/01 15:13:23;;;;;;;15.60;10.38;;;;;;;;;;6166089;23;20009;-93
2023/03/01 15:15:51;;;;;;;15.48;10.57;;;;;;;;;;6188502;23;20044;-93
2023/03/01 15:18:27;;;;;;;27.90;11.77;;;;;;;;;;6189237;23;20075;-93
2023/03/01 15:20:54;;;;;;;22.20;10.88;;;;;;;;;;6185854;23;20059;-95
2023/03/01 15:23:32;;;;;;;17.33;10.98;;;;;;;;;;6186760;23;20084;-95
2023/03/01 15:25:58;;;;;;;19.15;10.77;;;;;;;;;;6183035;23;20463;-95
2023/03/01 15:28:29;;;;;;;17.10;10.32;;;;;;;;;;6188570;23;20011;-94